sensor_id;sensor_type;location;lat;lon;timestamp;temperature;humidity
4548;DHT22;2286;51.570;7.090;2022-08-11T00:00:19;21.10;25.20
4548;DHT22;2286;51.570;7.090;2022-08-11T00:02:50;21.00;25.40
4548;DHT22;2286;51.570;7.090;2022-08-11T00:05:19;20.90;25.50
4548;DHT22;2286;51.570;7.090;2022-08-11T00:07:49;20.90;25.70
4548;DHT22;2286;51.570;7.090;2022-08-11T00:10:20;20.90;26.10
4548;DHT22;2286;51.570;7.090;2022-08-11T00:12:52;20.70;25.50
4548;DHT22;2286;51.570;7.090;2022-08-11T00:15:21;20.70;26.20
4548;DHT22;2286;51.570;7.090;2022-08-11T00:17:50;20.70;26.10
4548;DHT22;2286;51.570;7.090;2022-08-11T00:20:24;20.60;25.90
4548;DHT22;2286;51.570;7.090;2022-08-11T00:23:01;20.50;26.30
4548;DHT22;2286;51.570;7.090;2022-08-11T00:25:30;20.40;26.70
4548;DHT22;2286;51.570;7.090;2022-08-11T00:28:03;20.30;26.50
4548;DHT22;2286;51.570;7.090;2022-08-11T00:30:37;20.30;26.90
4548;DHT22;2286;51.570;7.090;2022-08-11T00:33:05;20.30;27.50
4548;DHT22;2286;51.570;7.090;2022-08-11T00:35:32;20.30;28.00
4548;DHT22;2286;51.570;7.090;2022-08-11T00:38:00;20.20;28.10
4548;DHT22;2286;51.570;7.090;2022-08-11T00:40:36;20.10;29.00
4548;DHT22;2286;51.570;7.090;2022-08-11T00:43:14;20.10;28.80
4548;DHT22;2286;51.570;7.090;2022-08-11T00:45:59;20.10;29.40
4548;DHT22;2286;51.570;7.090;2022-08-11T00:48:32;20.10;29.10
4548;DHT22;2286;51.570;7.090;2022-08-11T00:51:12;20.10;30.20
4548;DHT22;2286;51.570;7.090;2022-08-11T00:53:47;20.00;30.30
4548;DHT22;2286;51.570;7.090;2022-08-11T00:56:58;19.90;31.10
4548;DHT22;2286;51.570;7.090;2022-08-11T00:59:50;19.80;32.00
4548;DHT22;2286;51.570;7.090;2022-08-11T01:02:40;19.80;32.80
4548;DHT22;2286;51.570;7.090;2022-08-11T01:05:36;19.80;33.90
4548;DHT22;2286;51.570;7.090;2022-08-11T01:08:42;19.70;35.40
4548;DHT22;2286;51.570;7.090;2022-08-11T01:11:32;19.70;37.20
4548;DHT22;2286;51.570;7.090;2022-08-11T01:14:36;19.60;40.30
4548;DHT22;2286;51.570;7.090;2022-08-11T01:20:39;19.50;42.90
4548;DHT22;2286;51.570;7.090;2022-08-11T01:23:47;19.40;43.80
4548;DHT22;2286;51.570;7.090;2022-08-11T01:30:16;19.30;47.10
4548;DHT22;2286;51.570;7.090;2022-08-11T01:33:06;19.20;52.30
4548;DHT22;2286;51.570;7.090;2022-08-11T01:36:04;19.20;55.70
4548;DHT22;2286;51.570;7.090;2022-08-11T01:38:49;19.20;56.80
4548;DHT22;2286;51.570;7.090;2022-08-11T01:41:59;19.20;62.20
4548;DHT22;2286;51.570;7.090;2022-08-11T01:45:05;19.20;70.30
4548;DHT22;2286;51.570;7.090;2022-08-11T01:47:38;19.10;76.90
4548;DHT22;2286;51.570;7.090;2022-08-11T01:50:25;19.00;97.30
4548;DHT22;2286;51.570;7.090;2022-08-11T01:53:09;19.00;91.60
4548;DHT22;2286;51.570;7.090;2022-08-11T01:55:46;19.00;97.10
4548;DHT22;2286;51.570;7.090;2022-08-11T01:58:22;18.90;99.90
4548;DHT22;2286;51.570;7.090;2022-08-11T02:00:57;18.90;99.90
4548;DHT22;2286;51.570;7.090;2022-08-11T02:03:34;18.90;99.90
4548;DHT22;2286;51.570;7.090;2022-08-11T02:06:10;18.80;99.90
4548;DHT22;2286;51.570;7.090;2022-08-11T02:09:08;18.70;99.90
4548;DHT22;2286;51.570;7.090;2022-08-11T02:11:39;18.60;99.90
4548;DHT22;2286;51.570;7.090;2022-08-11T02:14:19;18.60;99.90
4548;DHT22;2286;51.570;7.090;2022-08-11T02:17:12;18.50;99.90
4548;DHT22;2286;51.570;7.090;2022-08-11T02:19:48;18.40;99.90
4548;DHT22;2286;51.570;7.090;2022-08-11T02:22:44;18.40;99.90
4548;DHT22;2286;51.570;7.090;2022-08-11T02:25:36;18.40;99.90
4548;DHT22;2286;51.570;7.090;2022-08-11T02:28:09;18.30;99.90
4548;DHT22;2286;51.570;7.090;2022-08-11T02:30:48;18.20;99.90
4548;DHT22;2286;51.570;7.090;2022-08-11T02:33:41;18.10;99.90
4548;DHT22;2286;51.570;7.090;2022-08-11T02:36:11;18.10;99.90
4548;DHT22;2286;51.570;7.090;2022-08-11T02:38:48;18.10;99.90
4548;DHT22;2286;51.570;7.090;2022-08-11T02:41:24;18.00;99.90
4548;DHT22;2286;51.570;7.090;2022-08-11T02:44:23;17.90;99.90
4548;DHT22;2286;51.570;7.090;2022-08-11T02:47:01;17.90;99.90
4548;DHT22;2286;51.570;7.090;2022-08-11T02:49:51;17.90;99.90
4548;DHT22;2286;51.570;7.090;2022-08-11T02:52:36;17.80;99.90
4548;DHT22;2286;51.570;7.090;2022-08-11T02:55:21;17.80;99.90
4548;DHT22;2286;51.570;7.090;2022-08-11T02:58:00;17.80;99.90
4548;DHT22;2286;51.570;7.090;2022-08-11T03:00:29;17.70;99.90
4548;DHT22;2286;51.570;7.090;2022-08-11T03:03:17;17.70;99.90
4548;DHT22;2286;51.570;7.090;2022-08-11T03:06:06;17.70;1.00
4548;DHT22;2286;51.570;7.090;2022-08-11T03:08:46;17.70;1.00
4548;DHT22;2286;51.570;7.090;2022-08-11T03:11:21;17.60;1.00
4548;DHT22;2286;51.570;7.090;2022-08-11T03:14:15;17.60;1.00
4548;DHT22;2286;51.570;7.090;2022-08-11T03:17:09;17.50;1.00
4548;DHT22;2286;51.570;7.090;2022-08-11T03:19:50;17.50;1.00
4548;DHT22;2286;51.570;7.090;2022-08-11T03:22:23;17.40;1.00
4548;DHT22;2286;51.570;7.090;2022-08-11T03:24:59;17.40;1.00
4548;DHT22;2286;51.570;7.090;2022-08-11T03:27:42;17.30;1.00
4548;DHT22;2286;51.570;7.090;2022-08-11T03:30:15;17.30;1.00
4548;DHT22;2286;51.570;7.090;2022-08-11T03:33:00;17.30;1.00
4548;DHT22;2286;51.570;7.090;2022-08-11T03:36:00;17.30;1.00
4548;DHT22;2286;51.570;7.090;2022-08-11T03:38:41;17.20;1.00
4548;DHT22;2286;51.570;7.090;2022-08-11T03:41:25;17.30;1.00
4548;DHT22;2286;51.570;7.090;2022-08-11T03:44:24;17.30;1.00
4548;DHT22;2286;51.570;7.090;2022-08-11T03:47:13;17.30;1.00
4548;DHT22;2286;51.570;7.090;2022-08-11T03:49:55;17.20;1.00
4548;DHT22;2286;51.570;7.090;2022-08-11T03:52:32;17.30;1.00
4548;DHT22;2286;51.570;7.090;2022-08-11T03:55:09;17.20;1.00
4548;DHT22;2286;51.570;7.090;2022-08-11T04:04:35;17.10;1.00
4548;DHT22;2286;51.570;7.090;2022-08-11T04:10:53;16.90;79.90
4548;DHT22;2286;51.570;7.090;2022-08-11T04:13:56;16.80;99.90
4548;DHT22;2286;51.570;7.090;2022-08-11T04:16:46;16.70;99.90
4548;DHT22;2286;51.570;7.090;2022-08-11T04:22:52;16.60;99.90
4548;DHT22;2286;51.570;7.090;2022-08-11T04:28:59;16.60;99.90
4548;DHT22;2286;51.570;7.090;2022-08-11T04:31:37;16.60;99.90
4548;DHT22;2286;51.570;7.090;2022-08-11T04:34:31;16.50;99.90
4548;DHT22;2286;51.570;7.090;2022-08-11T04:37:11;16.50;99.90
4548;DHT22;2286;51.570;7.090;2022-08-11T04:40:17;16.60;99.90
4548;DHT22;2286;51.570;7.090;2022-08-11T04:43:30;16.70;99.90
4548;DHT22;2286;51.570;7.090;2022-08-11T04:52:27;16.90;1.00
4548;DHT22;2286;51.570;7.090;2022-08-11T04:58:51;17.00;1.00
4548;DHT22;2286;51.570;7.090;2022-08-11T05:01:53;17.00;1.00
4548;DHT22;2286;51.570;7.090;2022-08-11T05:08:15;17.10;1.00
4548;DHT22;2286;51.570;7.090;2022-08-11T05:13:44;17.30;1.00
4548;DHT22;2286;51.570;7.090;2022-08-11T05:16:33;17.40;1.00
4548;DHT22;2286;51.570;7.090;2022-08-11T05:19:19;17.50;1.00
4548;DHT22;2286;51.570;7.090;2022-08-11T05:22:07;17.50;1.00
4548;DHT22;2286;51.570;7.090;2022-08-11T05:24:58;17.60;99.90
4548;DHT22;2286;51.570;7.090;2022-08-11T05:27:58;17.70;99.90
4548;DHT22;2286;51.570;7.090;2022-08-11T05:30:46;17.70;99.90
4548;DHT22;2286;51.570;7.090;2022-08-11T05:33:34;17.90;99.90
4548;DHT22;2286;51.570;7.090;2022-08-11T05:36:27;18.00;99.90
4548;DHT22;2286;51.570;7.090;2022-08-11T05:39:00;18.00;99.90
4548;DHT22;2286;51.570;7.090;2022-08-11T05:41:47;18.00;99.90
4548;DHT22;2286;51.570;7.090;2022-08-11T05:44:34;18.10;99.90
4548;DHT22;2286;51.570;7.090;2022-08-11T05:47:22;18.10;99.90
4548;DHT22;2286;51.570;7.090;2022-08-11T05:50:09;18.20;99.90
4548;DHT22;2286;51.570;7.090;2022-08-11T05:52:54;18.20;99.90
4548;DHT22;2286;51.570;7.090;2022-08-11T05:55:40;18.30;99.90
4548;DHT22;2286;51.570;7.090;2022-08-11T05:58:25;18.40;99.90
4548;DHT22;2286;51.570;7.090;2022-08-11T06:00:54;18.50;99.90
4548;DHT22;2286;51.570;7.090;2022-08-11T06:03:25;18.50;99.90
4548;DHT22;2286;51.570;7.090;2022-08-11T06:05:53;18.60;99.90
4548;DHT22;2286;51.570;7.090;2022-08-11T06:08:27;18.70;99.90
4548;DHT22;2286;51.570;7.090;2022-08-11T06:10:59;18.80;99.90
4548;DHT22;2286;51.570;7.090;2022-08-11T06:13:27;18.90;99.90
4548;DHT22;2286;51.570;7.090;2022-08-11T06:15:56;18.90;99.90
4548;DHT22;2286;51.570;7.090;2022-08-11T06:18:24;19.00;99.90
4548;DHT22;2286;51.570;7.090;2022-08-11T06:20:54;19.10;99.90
4548;DHT22;2286;51.570;7.090;2022-08-11T06:23:30;19.20;99.90
4548;DHT22;2286;51.570;7.090;2022-08-11T06:25:58;19.30;99.90
4548;DHT22;2286;51.570;7.090;2022-08-11T06:28:30;19.40;99.90
4548;DHT22;2286;51.570;7.090;2022-08-11T06:31:01;19.50;99.90
4548;DHT22;2286;51.570;7.090;2022-08-11T06:33:32;19.60;99.90
4548;DHT22;2286;51.570;7.090;2022-08-11T06:36:04;19.60;99.90
4548;DHT22;2286;51.570;7.090;2022-08-11T06:38:45;19.70;99.90
4548;DHT22;2286;51.570;7.090;2022-08-11T06:41:18;19.80;99.90
4548;DHT22;2286;51.570;7.090;2022-08-11T06:44:08;19.80;99.90
4548;DHT22;2286;51.570;7.090;2022-08-11T06:46:44;20.00;99.90
4548;DHT22;2286;51.570;7.090;2022-08-11T06:49:13;20.10;99.90
4548;DHT22;2286;51.570;7.090;2022-08-11T06:51:55;20.10;99.90
4548;DHT22;2286;51.570;7.090;2022-08-11T06:54:27;20.30;99.90
4548;DHT22;2286;51.570;7.090;2022-08-11T06:56:55;20.40;99.90
4548;DHT22;2286;51.570;7.090;2022-08-11T06:59:40;20.40;99.90
4548;DHT22;2286;51.570;7.090;2022-08-11T07:02:30;20.50;99.90
4548;DHT22;2286;51.570;7.090;2022-08-11T07:05:00;20.60;99.90
4548;DHT22;2286;51.570;7.090;2022-08-11T07:11:06;20.90;99.90
4548;DHT22;2286;51.570;7.090;2022-08-11T07:14:00;21.00;99.90
4548;DHT22;2286;51.570;7.090;2022-08-11T07:16:48;21.00;99.90
4548;DHT22;2286;51.570;7.090;2022-08-11T07:19:23;21.20;99.90
4548;DHT22;2286;51.570;7.090;2022-08-11T07:22:09;21.30;99.90
4548;DHT22;2286;51.570;7.090;2022-08-11T07:24:58;21.40;99.90
4548;DHT22;2286;51.570;7.090;2022-08-11T07:27:46;21.50;99.90
4548;DHT22;2286;51.570;7.090;2022-08-11T07:30:34;21.70;99.90
4548;DHT22;2286;51.570;7.090;2022-08-11T07:33:03;21.80;99.90
4548;DHT22;2286;51.570;7.090;2022-08-11T07:35:35;21.90;99.90
4548;DHT22;2286;51.570;7.090;2022-08-11T07:38:05;22.00;99.90
4548;DHT22;2286;51.570;7.090;2022-08-11T07:40:33;22.10;99.90
4548;DHT22;2286;51.570;7.090;2022-08-11T07:43:02;22.20;99.90
4548;DHT22;2286;51.570;7.090;2022-08-11T07:45:30;22.20;99.90
4548;DHT22;2286;51.570;7.090;2022-08-11T07:48:15;22.30;99.90
4548;DHT22;2286;51.570;7.090;2022-08-11T07:51:01;22.50;99.90
4548;DHT22;2286;51.570;7.090;2022-08-11T07:53:47;22.60;99.90
4548;DHT22;2286;51.570;7.090;2022-08-11T07:56:14;22.70;99.90
4548;DHT22;2286;51.570;7.090;2022-08-11T07:58:44;22.80;99.30
4548;DHT22;2286;51.570;7.090;2022-08-11T08:01:29;22.90;99.90
4548;DHT22;2286;51.570;7.090;2022-08-11T08:04:16;23.00;99.90
4548;DHT22;2286;51.570;7.090;2022-08-11T08:07:04;23.10;99.90
4548;DHT22;2286;51.570;7.090;2022-08-11T08:09:49;23.20;96.80
4548;DHT22;2286;51.570;7.090;2022-08-11T08:12:34;23.40;96.50
4548;DHT22;2286;51.570;7.090;2022-08-11T08:15:20;23.50;95.00
4548;DHT22;2286;51.570;7.090;2022-08-11T08:18:06;23.60;93.70
4548;DHT22;2286;51.570;7.090;2022-08-11T08:20:38;23.80;92.10
4548;DHT22;2286;51.570;7.090;2022-08-11T08:23:07;23.80;91.20
4548;DHT22;2286;51.570;7.090;2022-08-11T08:25:37;24.00;90.10
4548;DHT22;2286;51.570;7.090;2022-08-11T08:28:07;24.10;90.30
4548;DHT22;2286;51.570;7.090;2022-08-11T08:30:36;24.20;88.90
4548;DHT22;2286;51.570;7.090;2022-08-11T08:33:18;24.40;84.80
4548;DHT22;2286;51.570;7.090;2022-08-11T08:35:47;24.50;84.40
4548;DHT22;2286;51.570;7.090;2022-08-11T08:38:16;24.70;78.40
4548;DHT22;2286;51.570;7.090;2022-08-11T08:40:44;24.80;80.30
4548;DHT22;2286;51.570;7.090;2022-08-11T08:43:15;25.00;78.50
4548;DHT22;2286;51.570;7.090;2022-08-11T08:45:43;25.10;78.40
4548;DHT22;2286;51.570;7.090;2022-08-11T08:48:12;25.10;78.60
4548;DHT22;2286;51.570;7.090;2022-08-11T08:50:43;25.20;78.00
4548;DHT22;2286;51.570;7.090;2022-08-11T08:53:34;25.30;77.70
4548;DHT22;2286;51.570;7.090;2022-08-11T08:56:05;25.60;79.40
4548;DHT22;2286;51.570;7.090;2022-08-11T08:58:34;25.60;74.10
4548;DHT22;2286;51.570;7.090;2022-08-11T09:01:02;25.90;72.70
4548;DHT22;2286;51.570;7.090;2022-08-11T09:03:29;26.00;71.10
4548;DHT22;2286;51.570;7.090;2022-08-11T09:05:58;26.20;70.60
4548;DHT22;2286;51.570;7.090;2022-08-11T09:08:25;26.30;70.90
4548;DHT22;2286;51.570;7.090;2022-08-11T09:10:56;26.50;68.90
4548;DHT22;2286;51.570;7.090;2022-08-11T09:13:41;26.60;69.30
4548;DHT22;2286;51.570;7.090;2022-08-11T09:16:11;26.70;66.80
4548;DHT22;2286;51.570;7.090;2022-08-11T09:18:40;26.90;66.80
4548;DHT22;2286;51.570;7.090;2022-08-11T09:21:10;27.00;65.50
4548;DHT22;2286;51.570;7.090;2022-08-11T09:23:39;27.00;63.80
4548;DHT22;2286;51.570;7.090;2022-08-11T09:26:26;26.90;62.40
4548;DHT22;2286;51.570;7.090;2022-08-11T09:29:10;27.10;64.70
4548;DHT22;2286;51.570;7.090;2022-08-11T09:31:38;27.20;63.50
4548;DHT22;2286;51.570;7.090;2022-08-11T09:34:05;27.50;62.60
4548;DHT22;2286;51.570;7.090;2022-08-11T09:36:33;27.80;64.00
4548;DHT22;2286;51.570;7.090;2022-08-11T09:39:18;28.00;64.00
4548;DHT22;2286;51.570;7.090;2022-08-11T09:42:04;28.20;62.60
4548;DHT22;2286;51.570;7.090;2022-08-11T09:44:33;28.30;63.60
4548;DHT22;2286;51.570;7.090;2022-08-11T09:47:17;28.40;60.00
4548;DHT22;2286;51.570;7.090;2022-08-11T09:49:46;28.80;59.80
4548;DHT22;2286;51.570;7.090;2022-08-11T09:52:17;29.10;60.90
4548;DHT22;2286;51.570;7.090;2022-08-11T09:54:47;29.20;59.00
4548;DHT22;2286;51.570;7.090;2022-08-11T09:57:19;29.30;58.60
4548;DHT22;2286;51.570;7.090;2022-08-11T10:00:06;29.60;59.70
4548;DHT22;2286;51.570;7.090;2022-08-11T10:02:33;29.80;58.90
4548;DHT22;2286;51.570;7.090;2022-08-11T10:05:01;30.10;59.90
4548;DHT22;2286;51.570;7.090;2022-08-11T10:07:45;30.40;58.90
4548;DHT22;2286;51.570;7.090;2022-08-11T10:10:16;30.50;58.90
4548;DHT22;2286;51.570;7.090;2022-08-11T10:12:50;30.80;58.50
4548;DHT22;2286;51.570;7.090;2022-08-11T10:15:20;31.20;58.90
4548;DHT22;2286;51.570;7.090;2022-08-11T10:18:03;31.50;60.80
4548;DHT22;2286;51.570;7.090;2022-08-11T10:20:50;32.00;61.40
4548;DHT22;2286;51.570;7.090;2022-08-11T10:23:19;32.40;62.80
4548;DHT22;2286;51.570;7.090;2022-08-11T10:26:04;32.80;64.00
4548;DHT22;2286;51.570;7.090;2022-08-11T10:28:52;33.40;66.80
4548;DHT22;2286;51.570;7.090;2022-08-11T10:31:20;34.10;69.70
4548;DHT22;2286;51.570;7.090;2022-08-11T10:34:05;34.80;72.00
4548;DHT22;2286;51.570;7.090;2022-08-11T10:36:35;35.60;74.50
4548;DHT22;2286;51.570;7.090;2022-08-11T10:39:08;36.30;76.50
4548;DHT22;2286;51.570;7.090;2022-08-11T10:41:36;36.80;76.70
4548;DHT22;2286;51.570;7.090;2022-08-11T10:44:23;37.70;80.70
4548;DHT22;2286;51.570;7.090;2022-08-11T10:46:51;37.70;76.60
4548;DHT22;2286;51.570;7.090;2022-08-11T10:49:36;38.10;77.50
4548;DHT22;2286;51.570;7.090;2022-08-11T10:52:03;38.40;78.00
4548;DHT22;2286;51.570;7.090;2022-08-11T10:54:48;39.10;79.40
4548;DHT22;2286;51.570;7.090;2022-08-11T10:57:33;39.00;77.50
4548;DHT22;2286;51.570;7.090;2022-08-11T11:00:19;39.60;79.80
4548;DHT22;2286;51.570;7.090;2022-08-11T11:02:46;40.00;79.00
4548;DHT22;2286;51.570;7.090;2022-08-11T11:05:21;40.00;75.70
4548;DHT22;2286;51.570;7.090;2022-08-11T11:07:53;40.20;76.90
4548;DHT22;2286;51.570;7.090;2022-08-11T11:10:21;40.60;77.90
4548;DHT22;2286;51.570;7.090;2022-08-11T11:12:53;40.80;77.00
4548;DHT22;2286;51.570;7.090;2022-08-11T11:15:43;40.80;77.40
4548;DHT22;2286;51.570;7.090;2022-08-11T11:18:31;41.50;79.40
4548;DHT22;2286;51.570;7.090;2022-08-11T11:21:05;42.00;79.50
4548;DHT22;2286;51.570;7.090;2022-08-11T11:23:39;42.30;81.30
4548;DHT22;2286;51.570;7.090;2022-08-11T11:26:42;42.50;80.60
4548;DHT22;2286;51.570;7.090;2022-08-11T11:29:30;41.80;75.00
4548;DHT22;2286;51.570;7.090;2022-08-11T11:32:16;42.00;75.50
4548;DHT22;2286;51.570;7.090;2022-08-11T11:37:45;42.80;77.60
4548;DHT22;2286;51.570;7.090;2022-08-11T11:40:16;42.90;76.50
4548;DHT22;2286;51.570;7.090;2022-08-11T11:42:48;42.40;73.20
4548;DHT22;2286;51.570;7.090;2022-08-11T11:45:16;41.70;68.40
4548;DHT22;2286;51.570;7.090;2022-08-11T11:47:46;42.30;71.20
4548;DHT22;2286;51.570;7.090;2022-08-11T11:50:22;43.20;74.50
4548;DHT22;2286;51.570;7.090;2022-08-11T11:52:51;43.10;73.70
4548;DHT22;2286;51.570;7.090;2022-08-11T11:55:20;43.70;76.40
4548;DHT22;2286;51.570;7.090;2022-08-11T11:57:49;43.90;76.50
4548;DHT22;2286;51.570;7.090;2022-08-11T12:00:34;44.10;76.90
4548;DHT22;2286;51.570;7.090;2022-08-11T12:03:20;44.50;78.60
4548;DHT22;2286;51.570;7.090;2022-08-11T12:05:49;44.80;78.30
4548;DHT22;2286;51.570;7.090;2022-08-11T12:08:19;44.90;77.70
4548;DHT22;2286;51.570;7.090;2022-08-11T12:10:48;44.80;77.20
4548;DHT22;2286;51.570;7.090;2022-08-11T12:13:16;44.80;77.30
4548;DHT22;2286;51.570;7.090;2022-08-11T12:16:02;45.10;77.80
4548;DHT22;2286;51.570;7.090;2022-08-11T12:18:35;45.40;79.10
4548;DHT22;2286;51.570;7.090;2022-08-11T12:21:03;45.70;79.00
4548;DHT22;2286;51.570;7.090;2022-08-11T12:23:31;45.70;78.10
4548;DHT22;2286;51.570;7.090;2022-08-11T12:26:17;45.40;74.90
4548;DHT22;2286;51.570;7.090;2022-08-11T12:29:03;45.60;76.00
4548;DHT22;2286;51.570;7.090;2022-08-11T12:31:31;46.20;78.20
4548;DHT22;2286;51.570;7.090;2022-08-11T12:34:04;46.30;77.70
4548;DHT22;2286;51.570;7.090;2022-08-11T12:36:36;46.10;75.50
4548;DHT22;2286;51.570;7.090;2022-08-11T12:39:05;45.90;74.30
4548;DHT22;2286;51.570;7.090;2022-08-11T12:41:34;46.00;74.60
4548;DHT22;2286;51.570;7.090;2022-08-11T12:44:19;45.90;74.90
4548;DHT22;2286;51.570;7.090;2022-08-11T12:47:07;46.70;77.40
4548;DHT22;2286;51.570;7.090;2022-08-11T12:49:42;45.20;68.00
4548;DHT22;2286;51.570;7.090;2022-08-11T12:52:31;45.50;70.30
4548;DHT22;2286;51.570;7.090;2022-08-11T12:55:01;46.80;75.60
4548;DHT22;2286;51.570;7.090;2022-08-11T12:57:31;47.40;78.40
4548;DHT22;2286;51.570;7.090;2022-08-11T13:00:17;47.60;78.30
4548;DHT22;2286;51.570;7.090;2022-08-11T13:03:04;47.80;78.80
4548;DHT22;2286;51.570;7.090;2022-08-11T13:05:52;47.60;77.20
4548;DHT22;2286;51.570;7.090;2022-08-11T13:08:21;47.50;75.30
4548;DHT22;2286;51.570;7.090;2022-08-11T13:10:50;47.30;75.20
4548;DHT22;2286;51.570;7.090;2022-08-11T13:13:35;47.80;76.90
4548;DHT22;2286;51.570;7.090;2022-08-11T13:16:04;47.40;73.60
4548;DHT22;2286;51.570;7.090;2022-08-11T13:18:33;47.50;74.00
4548;DHT22;2286;51.570;7.090;2022-08-11T13:21:01;48.00;76.00
4548;DHT22;2286;51.570;7.090;2022-08-11T13:23:30;47.80;74.20
4548;DHT22;2286;51.570;7.090;2022-08-11T13:26:00;47.60;74.10
4548;DHT22;2286;51.570;7.090;2022-08-11T13:28:28;47.10;69.30
4548;DHT22;2286;51.570;7.090;2022-08-11T13:30:55;47.20;69.30
4548;DHT22;2286;51.570;7.090;2022-08-11T13:33:41;47.50;72.20
4548;DHT22;2286;51.570;7.090;2022-08-11T13:36:11;48.70;76.40
4548;DHT22;2286;51.570;7.090;2022-08-11T13:38:41;49.30;79.10
4548;DHT22;2286;51.570;7.090;2022-08-11T13:41:09;49.20;77.00
4548;DHT22;2286;51.570;7.090;2022-08-11T13:43:51;48.60;73.20
4548;DHT22;2286;51.570;7.090;2022-08-11T13:46:19;48.60;73.10
4548;DHT22;2286;51.570;7.090;2022-08-11T13:48:49;48.80;75.10
4548;DHT22;2286;51.570;7.090;2022-08-11T13:51:18;48.90;73.90
4548;DHT22;2286;51.570;7.090;2022-08-11T13:54:00;48.60;71.60
4548;DHT22;2286;51.570;7.090;2022-08-11T13:56:29;49.50;75.80
4548;DHT22;2286;51.570;7.090;2022-08-11T13:58:56;48.80;71.70
4548;DHT22;2286;51.570;7.090;2022-08-11T14:01:27;49.10;73.80
4548;DHT22;2286;51.570;7.090;2022-08-11T14:03:55;49.30;72.10
4548;DHT22;2286;51.570;7.090;2022-08-11T14:06:26;49.30;72.30
4548;DHT22;2286;51.570;7.090;2022-08-11T14:08:53;49.90;74.40
4548;DHT22;2286;51.570;7.090;2022-08-11T14:11:20;50.20;74.20
4548;DHT22;2286;51.570;7.090;2022-08-11T14:14:07;49.70;71.20
4548;DHT22;2286;51.570;7.090;2022-08-11T14:16:41;49.80;72.70
4548;DHT22;2286;51.570;7.090;2022-08-11T14:19:12;49.50;71.00
4548;DHT22;2286;51.570;7.090;2022-08-11T14:21:42;49.60;72.20
4548;DHT22;2286;51.570;7.090;2022-08-11T14:24:27;48.70;66.60
4548;DHT22;2286;51.570;7.090;2022-08-11T14:26:55;48.80;66.10
4548;DHT22;2286;51.570;7.090;2022-08-11T14:29:25;48.30;64.20
4548;DHT22;2286;51.570;7.090;2022-08-11T14:31:55;48.60;63.60
4548;DHT22;2286;51.570;7.090;2022-08-11T14:34:25;49.00;68.10
4548;DHT22;2286;51.570;7.090;2022-08-11T14:36:58;49.10;66.20
4548;DHT22;2286;51.570;7.090;2022-08-11T14:39:27;49.90;69.00
4548;DHT22;2286;51.570;7.090;2022-08-11T14:41:57;50.40;70.50
4548;DHT22;2286;51.570;7.090;2022-08-11T14:44:44;49.80;66.80
4548;DHT22;2286;51.570;7.090;2022-08-11T14:47:31;49.30;64.00
4548;DHT22;2286;51.570;7.090;2022-08-11T14:49:59;49.10;64.20
4548;DHT22;2286;51.570;7.090;2022-08-11T14:52:31;49.70;66.50
4548;DHT22;2286;51.570;7.090;2022-08-11T14:55:00;50.30;69.40
4548;DHT22;2286;51.570;7.090;2022-08-11T14:57:44;50.60;70.50
4548;DHT22;2286;51.570;7.090;2022-08-11T15:00:14;50.70;70.00
4548;DHT22;2286;51.570;7.090;2022-08-11T15:02:44;50.90;68.00
4548;DHT22;2286;51.570;7.090;2022-08-11T15:05:30;50.00;66.80
4548;DHT22;2286;51.570;7.090;2022-08-11T15:08:00;51.00;70.20
4548;DHT22;2286;51.570;7.090;2022-08-11T15:10:27;50.70;65.30
4548;DHT22;2286;51.570;7.090;2022-08-11T15:12:55;50.40;66.70
4548;DHT22;2286;51.570;7.090;2022-08-11T15:15:24;50.20;63.90
4548;DHT22;2286;51.570;7.090;2022-08-11T15:18:10;50.10;64.00
4548;DHT22;2286;51.570;7.090;2022-08-11T15:20:38;50.00;63.50
4548;DHT22;2286;51.570;7.090;2022-08-11T15:23:24;49.80;61.70
4548;DHT22;2286;51.570;7.090;2022-08-11T15:26:11;49.70;62.80
4548;DHT22;2286;51.570;7.090;2022-08-11T15:28:42;50.00;61.80
4548;DHT22;2286;51.570;7.090;2022-08-11T15:31:28;49.70;60.80
4548;DHT22;2286;51.570;7.090;2022-08-11T15:34:17;50.00;62.40
4548;DHT22;2286;51.570;7.090;2022-08-11T15:37:06;50.10;61.30
4548;DHT22;2286;51.570;7.090;2022-08-11T15:40:08;49.00;58.60
4548;DHT22;2286;51.570;7.090;2022-08-11T15:43:09;48.30;56.10
4548;DHT22;2286;51.570;7.090;2022-08-11T15:45:56;49.10;59.10
4548;DHT22;2286;51.570;7.090;2022-08-11T15:48:33;49.70;60.30
4548;DHT22;2286;51.570;7.090;2022-08-11T15:51:07;49.70;59.40
4548;DHT22;2286;51.570;7.090;2022-08-11T15:53:41;49.20;58.40
4548;DHT22;2286;51.570;7.090;2022-08-11T15:56:11;49.40;58.40
4548;DHT22;2286;51.570;7.090;2022-08-11T15:58:42;50.20;61.10
4548;DHT22;2286;51.570;7.090;2022-08-11T16:01:29;49.60;57.80
4548;DHT22;2286;51.570;7.090;2022-08-11T16:04:17;48.20;53.70
4548;DHT22;2286;51.570;7.090;2022-08-11T16:06:49;48.30;74.40
4548;DHT22;2286;51.570;7.090;2022-08-11T16:09:21;48.30;55.20
4548;DHT22;2286;51.570;7.090;2022-08-11T16:11:51;48.90;57.10
4548;DHT22;2286;51.570;7.090;2022-08-11T16:14:22;48.50;54.80
4548;DHT22;2286;51.570;7.090;2022-08-11T16:17:08;48.60;54.90
4548;DHT22;2286;51.570;7.090;2022-08-11T16:19:36;48.50;54.30
4548;DHT22;2286;51.570;7.090;2022-08-11T16:22:08;48.70;54.00
4548;DHT22;2286;51.570;7.090;2022-08-11T16:24:37;47.90;51.40
4548;DHT22;2286;51.570;7.090;2022-08-11T16:27:10;48.10;52.60
4548;DHT22;2286;51.570;7.090;2022-08-11T16:29:41;48.10;52.50
4548;DHT22;2286;51.570;7.090;2022-08-11T16:32:11;48.40;52.40
4548;DHT22;2286;51.570;7.090;2022-08-11T16:34:51;48.20;52.30
4548;DHT22;2286;51.570;7.090;2022-08-11T16:37:37;47.10;48.70
4548;DHT22;2286;51.570;7.090;2022-08-11T16:40:22;47.20;48.30
4548;DHT22;2286;51.570;7.090;2022-08-11T16:42:52;47.10;48.70
4548;DHT22;2286;51.570;7.090;2022-08-11T16:45:39;47.20;49.30
4548;DHT22;2286;51.570;7.090;2022-08-11T16:48:35;48.00;52.00
4548;DHT22;2286;51.570;7.090;2022-08-11T16:51:03;47.10;48.00
4548;DHT22;2286;51.570;7.090;2022-08-11T16:53:31;47.50;49.80
4548;DHT22;2286;51.570;7.090;2022-08-11T16:55:59;47.20;48.40
4548;DHT22;2286;51.570;7.090;2022-08-11T16:58:30;46.90;46.30
4548;DHT22;2286;51.570;7.090;2022-08-11T17:01:16;46.80;46.50
4548;DHT22;2286;51.570;7.090;2022-08-11T17:03:51;46.20;44.50
4548;DHT22;2286;51.570;7.090;2022-08-11T17:06:38;46.40;44.70
4548;DHT22;2286;51.570;7.090;2022-08-11T17:09:26;46.00;45.00
4548;DHT22;2286;51.570;7.090;2022-08-11T17:12:13;46.10;44.80
4548;DHT22;2286;51.570;7.090;2022-08-11T17:15:03;46.00;44.50
4548;DHT22;2286;51.570;7.090;2022-08-11T17:17:54;45.60;43.30
4548;DHT22;2286;51.570;7.090;2022-08-11T17:20:23;45.10;41.10
4548;DHT22;2286;51.570;7.090;2022-08-11T17:22:51;44.30;39.60
4548;DHT22;2286;51.570;7.090;2022-08-11T17:25:37;44.40;39.20
4548;DHT22;2286;51.570;7.090;2022-08-11T17:28:05;44.10;39.50
4548;DHT22;2286;51.570;7.090;2022-08-11T17:30:35;43.80;37.20
4548;DHT22;2286;51.570;7.090;2022-08-11T17:33:21;43.70;37.80
4548;DHT22;2286;51.570;7.090;2022-08-11T17:36:08;44.10;38.40
4548;DHT22;2286;51.570;7.090;2022-08-11T17:38:37;43.70;37.80
4548;DHT22;2286;51.570;7.090;2022-08-11T17:41:06;43.40;35.80
4548;DHT22;2286;51.570;7.090;2022-08-11T17:43:53;42.90;33.80
4548;DHT22;2286;51.570;7.090;2022-08-11T17:46:40;42.20;32.10
4548;DHT22;2286;51.570;7.090;2022-08-11T17:49:26;42.50;33.10
4548;DHT22;2286;51.570;7.090;2022-08-11T17:52:02;42.40;33.80
4548;DHT22;2286;51.570;7.090;2022-08-11T17:54:50;42.20;32.10
4548;DHT22;2286;51.570;7.090;2022-08-11T17:57:40;41.70;31.20
4548;DHT22;2286;51.570;7.090;2022-08-11T18:00:26;41.50;30.70